Time;durP1;ratioP1;P1;durP2;ratioP2;P2;SDS_P1;SDS_P2;PMS_P1;PMS_P2;Temp;Humidity;BMP_temperature;BMP_pressure;BME280_temperature;BME280_humidity;BME280_pressure;Samples;Min_cycle;Max_cycle;Signal;HPM_P1;HPM_P2
2022/05/23 00:01:49;;;;;;;14.63;7.82;;;;;;;19.47;51.32;100887.41;4991856;28;20791;-61
2022/05/23 00:04:14;;;;;;;14.52;7.80;;;;;;;19.46;51.50;100875.13;5009260;28;20042;-60
2022/05/23 00:06:40;;;;;;;13.73;7.45;;;;;;;19.51;51.37;100875.88;5002034;28;20055;-60
2022/05/23 00:09:06;;;;;;;12.95;7.88;;;;;;;19.45;51.27;100876.84;5008915;28;20054;-60
2022/05/23 00:11:31;;;;;;;14.27;7.78;;;;;;;19.44;51.18;100875.09;4996029;28;20327;-63
2022/05/23 00:13:57;;;;;;;13.25;8.35;;;;;;;19.58;50.68;100862.44;4995737;28;20203;-61
2022/05/23 00:16:28;;;;;;;13.18;7.53;;;;;;;19.56;50.99;100860.75;4992304;28;20061;-60
2022/05/23 00:18:54;;;;;;;12.48;7.20;;;;;;;19.57;51.15;100857.22;4996723;28;20449;-60
2022/05/23 00:21:19;;;;;;;11.48;7.40;;;;;;;19.48;51.60;100850.34;4993705;28;20060;-60
2022/05/23 00:23:45;;;;;;;14.57;7.97;;;;;;;19.54;50.78;100841.41;4996614;28;20033;-60
2022/05/23 00:26:16;;;;;;;12.48;7.40;;;;;;;19.52;51.15;100836.16;4989946;28;20048;-61
2022/05/23 00:28:41;;;;;;;12.98;7.30;;;;;;;19.52;51.18;100836.16;4996319;28;20132;-60
2022/05/23 00:31:08;;;;;;;10.73;7.78;;;;;;;19.44;50.97;100832.81;4997868;28;20412;-61
2022/05/23 00:36:18;;;;;;;13.32;7.43;;;;;;;19.41;51.76;100811.72;4994747;28;20048;-61
2022/05/23 00:38:44;;;;;;;12.80;8.00;;;;;;;19.43;51.18;100804.63;4995269;28;20617;-60
2022/05/23 00:44:18;;;;;;;11.63;7.80;;;;;;;19.36;51.85;100816.25;4990952;28;20092;-61
2022/05/23 00:46:55;;;;;;;13.07;7.78;;;;;;;19.25;52.76;100815.63;5001307;28;20057;-60
2022/05/23 00:49:27;;;;;;;14.77;8.18;;;;;;;19.12;53.20;100817.69;4991915;28;20037;-60
2022/05/23 00:51:54;;;;;;;14.00;8.50;;;;;;;19.12;52.83;100808.88;4989954;28;20057;-60
2022/05/23 00:54:22;;;;;;;16.48;7.63;;;;;;;19.13;52.27;100808.84;4989254;28;20083;-61
2022/05/23 00:56:50;;;;;;;15.68;8.90;;;;;;;19.06;53.89;100804.59;5002731;28;20136;-60
2022/05/23 00:59:26;;;;;;;15.18;8.23;;;;;;;19.09;52.73;100806.31;4991814;28;20435;-61
2022/05/23 01:01:52;;;;;;;13.38;8.70;;;;;;;18.97;53.66;100797.75;4993367;28;20052;-61
2022/05/23 01:04:17;;;;;;;16.70;8.75;;;;;;;18.87;54.03;100801.50;4990614;28;20073;-60
2022/05/23 01:06:43;;;;;;;15.23;8.40;;;;;;;18.85;54.02;100795.38;4997710;28;20511;-60
2022/05/23 01:09:09;;;;;;;13.93;8.30;;;;;;;18.77;54.33;100797.31;4999073;28;20855;-61
2022/05/23 01:11:34;;;;;;;15.00;9.00;;;;;;;18.72;54.66;100796.56;4992522;28;20050;-60
2022/05/23 01:14:01;;;;;;;14.63;9.10;;;;;;;18.63;55.59;100796.72;4995025;28;20497;-60
2022/05/23 01:16:27;;;;;;;15.63;9.30;;;;;;;18.52;56.20;100789.00;4994948;28;20671;-61
2022/05/23 01:18:52;;;;;;;18.42;9.23;;;;;;;18.49;56.30;100794.34;5008314;28;20037;-61
2022/05/23 01:22:00;;;;;;;14.07;8.77;;;;;;;18.41;56.34;100791.00;4995432;28;20049;-61
2022/05/23 01:24:48;;;;;;;14.25;8.60;;;;;;;18.33;56.49;100794.69;4995020;28;20396;-61
2022/05/23 01:27:14;;;;;;;16.35;9.25;;;;;;;18.22;57.38;100795.78;4996465;28;20450;-59
2022/05/23 01:29:43;;;;;;;14.00;9.57;;;;;;;18.21;57.24;100801.94;4996707;28;20124;-60
2022/05/23 01:32:09;;;;;;;13.68;9.32;;;;;;;18.20;57.23;100799.31;4984720;28;20076;-60
2022/05/23 01:34:34;;;;;;;20.13;9.50;;;;;;;18.18;57.34;100793.19;5007070;28;20925;-60
2022/05/23 01:37:00;;;;;;;17.08;9.48;;;;;;;18.20;56.99;100791.41;5003930;28;20045;-60
2022/05/23 01:39:26;;;;;;;15.02;8.60;;;;;;;18.33;56.21;100781.47;4997415;28;20037;-60
2022/05/23 01:41:51;;;;;;;15.77;9.48;;;;;;;18.30;56.49;100794.75;4999783;28;20115;-60
2022/05/23 01:44:16;;;;;;;17.67;9.40;;;;;;;18.38;55.78;100785.78;4992507;28;20161;-60
2022/05/23 01:46:42;;;;;;;15.63;9.73;;;;;;;18.40;55.97;100780.47;4996925;28;20053;-60
2022/05/23 01:49:07;;;;;;;13.52;8.60;;;;;;;18.46;55.69;100777.69;5000227;28;20037;-61
2022/05/23 01:51:33;;;;;;;17.52;8.95;;;;;;;18.47;55.28;100777.69;4992438;28;20413;-61
2022/05/23 01:53:58;;;;;;;16.48;8.80;;;;;;;18.52;55.27;100788.13;4998620;28;20041;-62
2022/05/23 01:56:23;;;;;;;14.57;9.13;;;;;;;18.48;55.82;100782.03;4988261;28;20053;-60
2022/05/23 02:01:33;;;;;;;17.70;9.27;;;;;;;18.48;55.82;100778.56;5002771;28;20179;-60
2022/05/23 02:03:58;;;;;;;14.65;8.98;;;;;;;18.42;55.58;100774.25;4995447;28;20075;-60
2022/05/23 02:06:26;;;;;;;18.35;8.93;;;;;;;18.44;55.55;100777.72;4993203;28;20111;-61
2022/05/23 02:08:52;;;;;;;17.80;9.30;;;;;;;18.50;55.21;100769.69;5002515;28;20501;-60
2022/05/23 02:11:17;;;;;;;15.57;8.75;;;;;;;18.52;55.03;100772.28;4999875;28;20045;-60
2022/05/23 02:13:44;;;;;;;15.73;8.85;;;;;;;18.58;55.30;100767.78;4995911;28;20119;-62
2022/05/23 02:16:10;;;;;;;14.45;8.88;;;;;;;18.69;55.12;100774.59;4989401;28;20036;-61
2022/05/23 02:18:36;;;;;;;14.43;8.60;;;;;;;18.66;54.74;100777.31;4998268;28;20045;-61
2022/05/23 02:21:01;;;;;;;15.40;9.05;;;;;;;18.68;55.10;100772.88;4996604;28;20040;-59
2022/05/23 02:23:27;;;;;;;20.30;9.27;;;;;;;18.79;54.03;100758.53;5001596;28;20045;-59
2022/05/23 02:25:52;;;;;;;13.50;9.18;;;;;;;18.79;54.61;100761.16;5003736;28;20048;-59
2022/05/23 02:28:18;;;;;;;12.13;8.50;;;;;;;18.82;54.59;100755.81;4994474;28;20479;-59
2022/05/23 02:30:46;;;;;;;15.20;9.00;;;;;;;18.79;54.83;100750.59;5006500;28;20215;-59
2022/05/23 02:33:11;;;;;;;15.93;8.57;;;;;;;18.76;55.13;100745.41;5006330;28;20365;-61
2022/05/23 02:35:37;;;;;;;13.15;9.00;;;;;;;18.78;55.07;100740.09;4997164;28;20483;-60
2022/05/23 02:38:03;;;;;;;18.70;9.30;;;;;;;18.72;55.46;100734.94;4993944;28;20034;-61
2022/05/23 02:40:28;;;;;;;13.00;8.90;;;;;;;18.65;55.15;100728.94;4991339;28;20050;-60
2022/05/23 02:42:53;;;;;;;13.57;9.25;;;;;;;18.62;54.84;100715.78;5014911;28;20045;-60
2022/05/23 02:45:19;;;;;;;13.55;8.98;;;;;;;18.69;55.13;100709.47;4997080;28;20120;-60
2022/05/23 02:47:44;;;;;;;14.93;9.05;;;;;;;18.62;54.79;100710.50;5005771;28;20033;-60
2022/05/23 02:50:11;;;;;;;15.82;8.65;;;;;;;18.63;54.56;100704.31;4995015;28;20033;-60
2022/05/23 02:52:38;;;;;;;14.63;9.00;;;;;;;18.62;55.07;100706.09;4998872;28;20051;-60
2022/05/23 02:55:04;;;;;;;17.55;9.02;;;;;;;18.61;54.79;100700.84;4998388;28;20049;-60
2022/05/23 02:57:30;;;;;;;20.88;9.00;;;;;;;18.68;54.41;100696.28;4996109;28;20046;-60
2022/05/23 02:59:55;;;;;;;16.05;9.10;;;;;;;18.74;54.48;100689.09;4991066;28;20536;-60
2022/05/23 03:05:05;;;;;;;14.93;7.85;;;;;;;18.65;54.82;100670.84;4997226;28;20057;-58
2022/05/23 03:07:30;;;;;;;13.68;8.25;;;;;;;18.69;55.00;100664.56;4997182;28;20088;-60
2022/05/23 03:09:56;;;;;;;12.20;8.13;;;;;;;18.69;54.51;100658.41;4997025;28;20121;-60
2022/05/23 03:12:21;;;;;;;14.15;8.48;;;;;;;18.63;54.92;100651.50;4985355;28;20383;-59
2022/05/23 03:14:47;;;;;;;13.23;8.40;;;;;;;18.61;55.25;100650.66;4996087;28;20536;-60
2022/05/23 03:17:13;;;;;;;13.30;8.57;;;;;;;18.58;55.26;100642.81;4994907;28;20053;-61
2022/05/23 03:19:39;;;;;;;13.95;7.82;;;;;;;18.52;54.85;100635.88;4996208;28;20041;-60
2022/05/23 03:27:36;;;;;;;13.38;7.80;;;;;;;18.59;55.43;100618.16;4994881;28;20131;-61
2022/05/23 03:30:02;;;;;;;11.25;7.57;;;;;;;18.60;54.75;100622.56;4994354;28;20045;-60
2022/05/23 03:32:27;;;;;;;13.05;7.95;;;;;;;18.59;54.88;100619.03;4989531;28;20477;-59
2022/05/23 03:34:53;;;;;;;12.25;7.75;;;;;;;18.58;54.79;100613.78;4995996;28;20245;-59
2022/05/23 03:37:18;;;;;;;12.82;8.02;;;;;;;18.58;54.51;100612.03;4999441;28;20072;-60
2022/05/23 03:39:44;;;;;;;12.13;7.50;;;;;;;18.59;54.80;100613.75;4997802;28;20037;-59
2022/05/23 03:42:09;;;;;;;15.10;7.80;;;;;;;18.55;54.83;100609.44;4984821;28;20374;-60
2022/05/23 03:44:35;;;;;;;14.05;7.65;;;;;;;18.55;54.55;100604.16;4993327;28;20049;-59
2022/05/23 03:47:01;;;;;;;15.40;7.28;;;;;;;18.59;54.79;100604.97;5000311;28;20047;-61
2022/05/23 03:49:27;;;;;;;15.30;7.63;;;;;;;18.54;55.32;100605.00;4995523;28;20056;-60
2022/05/23 03:51:54;;;;;;;15.70;7.72;;;;;;;18.49;55.95;100592.84;4996923;28;20049;-61
2022/05/23 03:54:20;;;;;;;11.57;7.70;;;;;;;18.45;55.36;100593.81;4992539;28;20130;-61
2022/05/23 03:56:45;;;;;;;12.25;7.43;;;;;;;18.53;55.35;100578.69;4994267;28;20084;-60
2022/05/23 03:59:10;;;;;;;14.82;7.70;;;;;;;18.51;55.11;100577.84;4993253;28;20041;-60
2022/05/23 04:01:37;;;;;;;14.98;7.75;;;;;;;18.51;55.22;100577.84;5001077;28;20045;-60
2022/05/23 04:04:03;;;;;;;13.15;7.60;;;;;;;18.54;55.13;100575.97;4994383;28;20270;-60
2022/05/23 04:06:28;;;;;;;12.50;7.38;;;;;;;18.57;54.98;100573.31;4997300;28;20099;-60
2022/05/23 04:08:54;;;;;;;13.38;7.35;;;;;;;18.61;54.77;100572.31;4993336;28;20540;-60
2022/05/23 04:11:20;;;;;;;14.23;7.88;;;;;;;18.55;55.14;100568.97;5001962;28;20495;-59
2022/05/23 04:13:45;;;;;;;14.48;7.70;;;;;;;18.68;54.94;100573.03;4994485;28;20112;-60
2022/05/23 04:16:10;;;;;;;13.10;7.82;;;;;;;18.68;55.04;100577.44;4990463;28;20214;-61
2022/05/23 04:18:36;;;;;;;13.60;7.32;;;;;;;18.65;54.47;100573.13;4999271;28;20325;-60
2022/05/23 04:21:02;;;;;;;12.88;7.13;;;;;;;18.69;54.94;100569.50;4996385;28;20033;-60
2022/05/23 04:23:28;;;;;;;11.63;7.65;;;;;;;18.60;55.28;100565.31;4996139;28;20045;-60
2022/05/23 04:25:54;;;;;;;14.15;7.45;;;;;;;18.68;55.20;100558.97;4994840;28;20076;-60
2022/05/23 04:28:20;;;;;;;13.07;7.63;;;;;;;18.72;55.04;100560.66;4985715;28;20068;-61
2022/05/23 04:30:46;;;;;;;15.48;7.70;;;;;;;18.69;55.47;100558.94;4997594;28;20099;-60
2022/05/23 04:35:57;;;;;;;11.57;7.75;;;;;;;18.74;55.01;100558.81;4992408;28;20113;-60
2022/05/23 04:38:23;;;;;;;13.65;7.78;;;;;;;18.73;55.26;100551.78;4994719;28;20310;-61
2022/05/23 04:40:49;;;;;;;13.23;7.88;;;;;;;18.79;55.05;100546.34;4999715;28;20472;-58
2022/05/23 04:43:15;;;;;;;14.32;7.80;;;;;;;18.85;54.73;100541.78;5009509;28;20037;-60
2022/05/23 04:45:41;;;;;;;12.57;7.32;;;;;;;19.05;54.32;100534.22;5001122;28;20067;-60
2022/05/23 04:50:51;;;;;;;15.43;7.70;;;;;;;19.37;53.59;100521.91;4999649;28;20080;-60
2022/05/23 04:53:17;;;;;;;12.13;7.32;;;;;;;19.56;52.80;100522.28;5001103;28;20422;-60
2022/05/23 04:55:43;;;;;;;15.88;7.90;;;;;;;19.82;52.00;100523.22;4998784;28;20119;-60
2022/05/23 04:58:10;;;;;;;10.95;7.22;;;;;;;20.24;51.20;100515.75;4985765;28;20076;-61
2022/05/23 05:00:36;;;;;;;10.60;7.10;;;;;;;20.53;50.15;100514.84;5006160;28;20041;-60
2022/05/23 05:03:01;;;;;;;11.82;7.03;;;;;;;20.98;49.34;100515.03;4995527;28;20103;-60
2022/05/23 05:05:29;;;;;;;11.52;7.30;;;;;;;21.02;50.06;100519.34;5004497;28;20143;-60
2022/05/23 05:07:57;;;;;;;14.57;7.50;;;;;;;20.98;51.06;100520.34;5005843;28;20107;-61
2022/05/23 05:10:23;;;;;;;10.80;6.80;;;;;;;21.03;47.97;100509.59;4998068;28;20044;-60
2022/05/23 05:12:53;;;;;;;13.30;7.53;;;;;;;20.49;49.70;100515.00;5003152;28;20214;-61
2022/05/23 05:15:19;;;;;;;13.73;7.40;;;;;;;20.74;49.00;100512.41;4998735;28;20060;-62
2022/05/23 05:17:44;;;;;;;12.65;7.72;;;;;;;20.46;51.14;100504.50;4996637;28;20404;-60
2022/05/23 05:20:11;;;;;;;14.82;7.90;;;;;;;20.36;50.09;100498.66;4991599;28;20034;-61
2022/05/23 05:22:36;;;;;;;13.43;8.00;;;;;;;20.17;51.31;100494.81;5001066;28;20497;-60
2022/05/23 05:25:04;;;;;;;15.40;7.82;;;;;;;20.21;51.57;100493.81;5003507;28;20328;-60
2022/05/23 05:27:30;;;;;;;12.70;7.97;;;;;;;20.01;51.60;100493.56;5002681;28;20068;-60
2022/05/23 05:29:59;;;;;;;18.63;8.95;;;;;;;19.92;52.31;100480.63;5015706;28;20045;-60
2022/05/23 05:32:47;;;;;;;16.92;8.43;;;;;;;19.66;52.47;100476.13;4995578;28;20804;-60
2022/05/23 05:35:39;;;;;;;13.68;8.98;;;;;;;19.53;52.64;100472.13;5001030;28;20045;-60
2022/05/23 05:38:13;;;;;;;12.63;8.60;;;;;;;19.77;52.16;100469.59;4995450;28;20046;-60
2022/05/23 05:40:39;;;;;;;15.20;8.77;;;;;;;20.06;52.34;100475.78;5001097;28;20047;-61
2022/05/23 05:43:10;;;;;;;17.15;9.00;;;;;;;20.29;51.97;100473.25;4998477;28;20048;-60
2022/05/23 05:45:45;;;;;;;19.00;9.13;;;;;;;20.53;51.46;100469.81;5009111;28;20034;-61
2022/05/23 05:48:11;;;;;;;14.00;8.90;;;;;;;20.72;50.76;100459.47;4995461;28;20072;-60
2022/05/23 05:50:39;;;;;;;15.70;9.25;;;;;;;20.92;51.71;100454.31;4999401;28;20033;-61
2022/05/23 05:53:10;;;;;;;14.32;9.13;;;;;;;20.95;51.56;100463.94;4994784;28;20042;-60
2022/05/23 05:55:40;;;;;;;14.15;8.48;;;;;;;21.02;49.56;100462.81;4996996;28;20033;-61
2022/05/23 05:58:07;;;;;;;15.75;9.32;;;;;;;20.90;51.79;100460.59;4994705;28;20122;-61
2022/05/23 06:00:32;;;;;;;18.00;9.80;;;;;;;20.85;49.66;100455.47;5008157;28;20033;-61
2022/05/23 06:02:58;;;;;;;14.43;9.10;;;;;;;20.82;50.96;100450.25;5005164;28;20041;-61
2022/05/23 06:05:23;;;;;;;15.95;9.48;;;;;;;20.64;51.38;100450.91;4997006;28;20049;-60
2022/05/23 06:11:23;;;;;;;;;;;;;;;20.43;52.00;100439.25;4997723;28;20149;-61
2022/05/23 06:13:18;;;;;;;17.30;10.05;;;;;;;20.61;52.08;100445.72;4997244;28;19979;-59
2022/05/23 06:15:45;;;;;;;14.57;9.52;;;;;;;20.74;51.63;100447.00;4996400;28;20045;-61
2022/05/23 06:18:10;;;;;;;16.67;10.18;;;;;;;20.84;51.03;100447.56;4990177;28;20037;-60
2022/05/23 06:20:36;;;;;;;14.85;9.73;;;;;;;20.71;51.07;100446.25;5000310;28;20045;-60
2022/05/23 06:23:02;;;;;;;13.98;9.45;;;;;;;20.94;51.56;100431.28;4998136;28;20365;-60
2022/05/23 06:25:28;;;;;;;14.75;9.35;;;;;;;21.16;50.45;100420.81;5000523;28;20057;-61
2022/05/23 06:27:53;;;;;;;16.13;9.40;;;;;;;21.28;49.46;100430.09;5002486;28;20049;-60
2022/05/23 06:30:19;;;;;;;16.50;10.07;;;;;;;20.93;51.13;100420.72;4994861;28;20487;-60
2022/05/23 06:32:45;;;;;;;16.35;10.38;;;;;;;21.02;51.61;100425.72;4992329;28;20045;-61
2022/05/23 06:35:11;;;;;;;15.32;10.30;;;;;;;21.12;51.41;100415.63;4999286;28;20144;-61
2022/05/23 06:37:38;;;;;;;15.50;10.32;;;;;;;21.04;50.72;100418.56;5000564;28;21027;-60
2022/05/23 06:40:06;;;;;;;14.57;10.18;;;;;;;21.09;50.59;100415.75;4995482;28;20397;-59
2022/05/23 06:42:32;;;;;;;17.65;10.90;;;;;;;21.00;51.42;100415.16;5004250;28;20143;-60
2022/05/23 06:44:58;;;;;;;19.35;10.10;;;;;;;20.95;50.94;100406.50;5000671;28;20531;-60
2022/05/23 06:47:24;;;;;;;15.02;10.65;;;;;;;20.96;51.10;100410.03;4994161;28;20045;-60
2022/05/23 06:49:49;;;;;;;16.17;10.85;;;;;;;20.88;51.97;100404.13;4993589;28;20115;-60
2022/05/23 06:52:15;;;;;;;17.83;10.40;;;;;;;21.08;51.63;100408.72;4992066;28;20045;-59
2022/05/23 06:54:41;;;;;;;17.52;10.48;;;;;;;21.45;51.95;100403.78;4991136;28;20085;-60
2022/05/23 06:57:06;;;;;;;18.55;9.85;;;;;;;21.89;50.13;100403.81;5002038;28;20049;-60
2022/05/23 06:59:32;;;;;;;18.17;10.10;;;;;;;22.32;47.37;100409.13;4996363;28;20612;-61
2022/05/23 07:01:58;;;;;;;20.52;10.48;;;;;;;22.71;47.19;100406.53;4998651;28;20725;-60
2022/05/23 07:04:23;;;;;;;15.43;10.10;;;;;;;22.84;46.65;100404.22;5002227;28;20907;-61
2022/05/23 07:12:20;;;;;;;15.90;9.60;;;;;;;22.93;46.76;100402.00;4988293;28;19920;-59
2022/05/23 07:14:45;;;;;;;15.40;9.63;;;;;;;22.64;47.11;100389.97;5001352;28;20060;-59
2022/05/23 07:17:10;;;;;;;16.80;9.93;;;;;;;22.58;48.17;100390.25;4992972;28;20097;-61
2022/05/23 07:19:36;;;;;;;12.77;9.40;;;;;;;22.70;47.89;100387.97;4999943;28;20380;-61
2022/05/23 07:22:03;;;;;;;16.38;10.57;;;;;;;22.37;48.62;100390.31;4998461;28;20678;-60
2022/05/23 07:24:30;;;;;;;17.13;9.95;;;;;;;22.29;48.91;100385.34;4991540;28;20049;-61
2022/05/23 07:26:55;;;;;;;14.82;10.07;;;;;;;22.30;50.07;100380.88;4996916;28;20670;-60
2022/05/23 07:29:24;;;;;;;16.10;10.00;;;;;;;22.50;48.65;100381.78;4997741;28;20045;-60
2022/05/23 07:31:51;;;;;;;12.70;9.43;;;;;;;22.58;48.87;100379.63;4995743;28;20044;-60
2022/05/23 07:34:18;;;;;;;18.73;9.52;;;;;;;22.70;49.02;100383.53;4996703;28;20061;-60
2022/05/23 07:36:44;;;;;;;18.77;11.10;;;;;;;22.66;48.51;100379.28;5000337;28;20037;-61
2022/05/23 07:39:11;;;;;;;19.02;11.88;;;;;;;22.50;50.57;100387.09;4998427;28;20384;-60
2022/05/23 07:41:39;;;;;;;20.27;12.35;;;;;;;22.54;49.20;100385.13;4998080;28;20453;-60
2022/05/23 07:44:11;;;;;;;20.30;12.07;;;;;;;22.45;49.85;100389.03;4989732;28;20053;-61
2022/05/23 07:46:40;;;;;;;18.50;11.75;;;;;;;22.83;49.01;100390.06;4996996;28;20072;-61
2022/05/23 07:49:05;;;;;;;15.85;11.60;;;;;;;23.16;48.01;100385.03;5011558;28;20036;-62
2022/05/23 07:51:32;;;;;;;19.88;11.63;;;;;;;23.15;49.14;100388.63;4992274;28;20037;-61
2022/05/23 08:02:12;;;;;;;21.00;12.13;;;;;;;23.31;46.76;100364.81;4989426;28;20157;-61
2022/05/23 08:04:38;;;;;;;20.40;12.30;;;;;;;23.51;48.56;100369.22;4996905;28;20046;-60
2022/05/23 08:07:05;;;;;;;18.67;12.23;;;;;;;23.41;48.59;100361.66;4996274;28;20144;-61
2022/05/23 08:09:30;;;;;;;22.13;12.90;;;;;;;23.59;47.60;100367.06;4993586;28;20260;-62
2022/05/23 08:11:57;;;;;;;18.52;12.15;;;;;;;23.60;47.16;100364.34;4997146;28;20512;-61
2022/05/23 08:14:23;;;;;;;17.95;11.55;;;;;;;23.29;48.29;100361.38;4987073;28;20046;-61
2022/05/23 08:16:50;;;;;;;19.58;11.80;;;;;;;23.71;47.08;100350.50;5000236;28;20102;-61
2022/05/23 08:19:15;;;;;;;17.20;11.55;;;;;;;24.03;47.58;100347.09;4986931;28;20038;-61
2022/05/23 08:21:50;;;;;;;17.45;11.95;;;;;;;24.61;46.60;100345.00;4988956;28;20053;-61
2022/05/23 08:24:16;;;;;;;17.73;11.18;;;;;;;25.57;43.33;100345.09;4991823;28;20126;-62
2022/05/23 08:26:42;;;;;;;15.60;11.00;;;;;;;25.91;41.88;100336.00;4998563;28;20049;-61
2022/05/23 08:29:08;;;;;;;16.90;11.05;;;;;;;26.28;39.77;100332.06;4998435;28;20268;-63
2022/05/23 08:31:34;;;;;;;15.77;10.60;;;;;;;26.50;41.53;100329.81;4999693;28;20148;-62
2022/05/23 08:33:59;;;;;;;19.25;10.82;;;;;;;26.59;42.57;100318.53;5002018;28;20796;-62
2022/05/23 08:36:24;;;;;;;15.82;9.77;;;;;;;27.21;40.38;100316.44;4998924;28;21299;-63
2022/05/23 08:38:50;;;;;;;16.35;10.52;;;;;;;27.59;38.15;100297.03;5003269;28;20052;-61
2022/05/23 08:41:15;;;;;;;17.60;10.23;;;;;;;27.57;38.30;100301.66;4998867;28;20046;-62
2022/05/23 08:44:08;;;;;;;15.10;10.13;;;;;;;26.96;41.62;100297.53;5002139;28;20314;-61
2022/05/23 08:46:47;;;;;;;15.18;10.40;;;;;;;26.71;39.91;100295.53;5018426;28;20424;-63
2022/05/23 08:49:39;;;;;;;15.27;10.45;;;;;;;26.31;42.38;100299.78;4995109;28;20076;-62
2022/05/23 08:52:07;;;;;;;14.40;8.95;;;;;;;26.74;40.26;100300.69;4998113;28;20054;-60
2022/05/23 08:54:43;;;;;;;16.27;10.77;;;;;;;26.30;40.86;100298.06;4998348;28;20049;-62
2022/05/23 08:57:30;;;;;;;14.50;11.35;;;;;;;26.29;41.12;100299.00;4996024;28;20053;-63
2022/05/23 09:00:01;;;;;;;17.00;9.20;;;;;;;26.52;40.07;100286.94;5001850;28;20041;-62
2022/05/23 10:44:59;;;;;;;22.88;14.23;;;;;;;25.21;46.81;100144.38;5027137;28;21189;-63
2022/05/23 10:48:00;;;;;;;22.27;15.13;;;;;;;25.26;45.63;100136.94;5032214;28;20055;-62
2022/05/23 10:50:33;;;;;;;21.88;14.63;;;;;;;24.95;47.13;100141.41;5026916;28;21676;-62
2022/05/23 10:53:14;;;;;;;19.33;13.23;;;;;;;25.65;46.24;100131.94;5024854;28;20048;-65
2022/05/23 10:55:51;;;;;;;22.05;13.98;;;;;;;25.43;45.14;100139.50;5022402;28;20567;-62
2022/05/23 10:58:32;;;;;;;20.90;14.18;;;;;;;25.74;45.53;100128.72;5013305;28;20102;-62
2022/05/23 11:01:21;;;;;;;19.58;14.43;;;;;;;25.86;44.36;100135.09;5020175;28;20040;-62
2022/05/23 11:04:11;;;;;;;19.98;14.52;;;;;;;25.63;44.59;100120.50;5025839;28;20044;-64
2022/05/23 11:06:58;;;;;;;16.83;13.18;;;;;;;26.00;44.31;100107.56;5018197;28;20049;-62
2022/05/23 11:09:33;;;;;;;17.48;11.93;;;;;;;26.10;44.59;100100.69;5016299;28;20049;-64
2022/05/23 11:12:14;;;;;;;25.83;14.55;;;;;;;25.92;43.83;100105.38;5018221;28;20111;-64
2022/05/23 11:14:45;;;;;;;18.48;13.57;;;;;;;26.81;42.76;100096.09;5019523;28;20045;-63
2022/05/23 11:17:35;;;;;;;19.67;13.02;;;;;;;27.37;41.98;100086.97;5019123;28;20103;-63
2022/05/23 11:20:37;;;;;;;21.13;13.98;;;;;;;26.52;42.28;100086.44;5015614;28;20959;-60
2022/05/23 11:23:27;;;;;;;21.45;15.20;;;;;;;26.56;43.23;100078.13;5015363;28;20156;-64
2022/05/23 11:26:37;;;;;;;18.73;14.20;;;;;;;26.90;42.75;100073.25;5020985;28;20703;-63
2022/05/23 11:34:55;;;;;;;21.83;15.60;;;;;;;26.22;45.59;100082.09;5022954;28;20134;-63
2022/05/23 11:39:53;;;;;;;22.55;16.27;;;;;;;25.28;45.18;100082.56;5022133;28;20176;-64
2022/05/23 11:42:22;;;;;;;22.25;15.85;;;;;;;25.50;45.79;100074.13;5018200;28;20061;-65
2022/05/23 11:44:49;;;;;;;21.55;15.20;;;;;;;25.93;45.39;100063.47;5018886;28;20102;-63
2022/05/23 11:47:21;;;;;;;21.73;14.93;;;;;;;26.23;45.59;100053.53;5018702;28;20124;-63
2022/05/23 11:49:59;;;;;;;19.90;15.73;;;;;;;26.01;45.01;100048.69;5017993;28;20080;-63
2022/05/23 11:52:33;;;;;;;19.05;14.55;;;;;;;26.35;44.69;100030.56;5001379;28;20084;-63
2022/05/23 11:54:58;;;;;;;22.88;15.98;;;;;;;25.94;44.52;100019.81;5001048;28;20025;-64
2022/05/23 11:57:35;;;;;;;21.27;16.15;;;;;;;25.98;45.03;100022.22;5004343;28;20437;-63
2022/05/23 12:00:24;;;;;;;20.48;16.73;;;;;;;25.68;45.69;100008.94;5003625;28;20274;-62
2022/05/23 12:03:05;;;;;;;22.40;16.38;;;;;;;25.32;46.87;100012.03;5006591;28;20047;-62
2022/05/23 12:05:33;;;;;;;19.05;13.43;;;;;;;26.04;46.73;100015.63;5013611;28;20492;-61
2022/05/23 12:08:02;;;;;;;20.02;14.88;;;;;;;25.74;46.22;100008.56;5004965;28;20375;-63
2022/05/23 12:10:30;;;;;;;21.48;15.68;;;;;;;25.74;46.32;100011.22;5000929;28;20107;-62
2022/05/23 12:12:57;;;;;;;20.95;16.63;;;;;;;25.78;46.35;100006.56;5002454;28;20041;-62
2022/05/23 12:15:48;;;;;;;20.38;14.80;;;;;;;26.53;45.69;99990.09;5003542;28;20507;-63
2022/05/23 12:18:22;;;;;;;23.23;16.40;;;;;;;26.12;45.15;99995.44;4998672;28;20056;-63
2022/05/23 12:20:51;;;;;;;20.33;16.00;;;;;;;25.99;45.54;99989.16;5003550;28;20042;-62
2022/05/23 12:23:37;;;;;;;20.88;15.07;;;;;;;26.00;45.55;99992.69;5009247;28;20041;-62
2022/05/23 12:26:12;;;;;;;21.23;14.32;;;;;;;26.01;46.15;99992.63;5002060;28;20057;-63
2022/05/23 12:28:51;;;;;;;16.23;12.98;;;;;;;25.88;46.62;99994.34;5008877;28;20647;-62
2022/05/23 12:31:19;;;;;;;21.67;14.27;;;;;;;25.70;46.52;99987.50;5008894;28;20059;-62
2022/05/23 12:33:51;;;;;;;23.88;16.92;;;;;;;24.86;48.08;99995.25;5006830;28;20679;-63
2022/05/23 12:36:21;;;;;;;22.48;17.45;;;;;;;24.31;49.81;99994.94;5002790;28;20425;-63
2022/05/23 12:39:18;;;;;;;21.25;14.82;;;;;;;24.65;49.11;100008.03;5007461;28;20056;-63
2022/05/23 12:42:19;;;;;;;26.52;17.63;;;;;;;24.74;50.57;100013.78;5004001;28;20049;-63
2022/05/23 12:45:15;;;;;;;18.25;13.93;;;;;;;24.76;51.05;100003.91;4991536;28;20041;-63
2022/05/23 12:48:10;;;;;;;21.10;16.85;;;;;;;24.59;52.36;100010.19;5005983;28;20177;-62
2022/05/23 12:51:20;;;;;;;28.90;16.77;;;;;;;24.07;54.06;99998.97;4999827;28;20045;-62
2022/05/23 12:54:04;;;;;;;35.00;20.13;;;;;;;23.46;56.76;100002.28;5000790;28;20156;-60
2022/05/23 12:56:52;;;;;;;27.77;18.73;;;;;;;23.06;57.12;100007.03;5002642;28;20548;-60
2022/05/23 12:59:36;;;;;;;26.52;19.60;;;;;;;22.73;58.45;100005.22;5007653;28;20483;-60
2022/05/23 13:02:08;;;;;;;30.13;20.50;;;;;;;22.48;59.32;100002.91;5001596;28;20103;-60
2022/05/23 13:04:41;;;;;;;30.17;21.15;;;;;;;22.41;59.11;100020.06;5007689;28;20042;-61
2022/05/23 13:07:12;;;;;;;32.17;21.73;;;;;;;22.24;60.06;100035.03;5008569;28;20178;-63
2022/05/23 13:09:46;;;;;;;29.27;21.60;;;;;;;21.96;58.61;100071.75;5003805;28;20189;-62
2022/05/23 13:12:24;;;;;;;35.13;22.77;;;;;;;21.85;60.05;100074.00;4995591;28;20042;-62
2022/05/23 13:14:52;;;;;;;32.03;22.60;;;;;;;21.61;58.41;100068.00;5004076;28;20068;-60
2022/05/23 13:17:35;;;;;;;34.30;22.95;;;;;;;21.66;57.97;100065.16;5007524;28;20041;-62
2022/05/23 13:23:18;;;;;;;35.88;25.58;;;;;;;21.40;59.90;100051.28;5012863;28;20070;-60
2022/05/23 13:25:45;;;;;;;32.55;23.48;;;;;;;21.30;59.26;100043.78;5004232;28;20128;-59
2022/05/23 13:28:13;;;;;;;38.75;26.58;;;;;;;21.04;60.09;100040.41;4996415;28;20214;-60
2022/05/23 13:30:47;;;;;;;30.92;23.00;;;;;;;20.81;61.13;100016.69;5000875;28;20604;-61
2022/05/23 13:33:23;;;;;;;44.67;28.10;;;;;;;20.51;61.76;100000.28;5001515;28;20053;-60
2022/05/23 13:36:04;;;;;;;40.88;29.08;;;;;;;20.16;63.43;99995.53;5022101;28;20087;-61
2022/05/23 13:38:35;;;;;;;52.22;33.55;;;;;;;19.41;66.17;99986.91;5000992;28;20071;-61
2022/05/23 13:41:04;;;;;;;46.63;30.95;;;;;;;19.28;67.90;99978.56;5005941;28;20095;-59
2022/05/23 13:43:51;;;;;;;41.60;27.73;;;;;;;19.46;66.86;99974.41;5005253;28;20041;-62
2022/05/23 13:46:18;;;;;;;46.78;30.33;;;;;;;19.48;67.54;99972.59;4996992;28;20112;-62
2022/05/23 13:48:54;;;;;;;49.28;31.23;;;;;;;19.36;68.26;99971.25;5003860;28;20042;-61
2022/05/23 13:51:32;;;;;;;48.75;31.13;;;;;;;19.57;68.45;99972.25;5002147;28;20061;-62
2022/05/23 13:54:05;;;;;;;45.83;30.65;;;;;;;19.79;67.77;99975.81;5001390;28;20048;-61
2022/05/23 13:56:31;;;;;;;39.75;26.15;;;;;;;19.95;66.77;99976.06;4998562;28;20573;-62
2022/05/23 13:59:04;;;;;;;39.03;26.00;;;;;;;20.14;66.18;99961.19;4984191;28;20627;-61
2022/05/23 14:01:36;;;;;;;39.70;27.57;;;;;;;20.16;66.35;99939.97;4997111;28;20121;-61